createdAt,value
2023-05-16T00:00:45.523Z,17.87
2023-05-16T00:02:48.615Z,17.30
2023-05-16T00:04:52.225Z,22.10
2023-05-16T00:06:53.773Z,23.57
2023-05-16T00:08:55.483Z,25.67
2023-05-16T00:10:57.384Z,21.27
2023-05-16T00:12:58.973Z,25.37
2023-05-16T00:15:00.985Z,25.93
2023-05-16T00:17:02.732Z,26.80
2023-05-16T00:19:07.188Z,22.40
2023-05-16T00:21:11.396Z,25.33
2023-05-16T00:23:13.073Z,20.80
2023-05-16T00:25:14.675Z,26.03
2023-05-16T00:27:16.459Z,29.37
2023-05-16T00:29:18.390Z,27.03
2023-05-16T00:31:20.095Z,21.83
2023-05-16T00:33:21.685Z,27.93
2023-05-16T00:35:23.409Z,31.47
2023-05-16T00:37:26.412Z,28.27
2023-05-16T00:39:28.004Z,29.33
2023-05-16T00:41:29.901Z,29.57
2023-05-16T00:43:31.866Z,31.10
2023-05-16T00:45:33.434Z,29.63
2023-05-16T00:47:35.334Z,29.10
2023-05-16T00:49:37.484Z,30.40
2023-05-16T00:51:39.581Z,27.63
2023-05-16T00:53:43.046Z,30.23
2023-05-16T00:55:45.165Z,30.33
2023-05-16T00:57:48.593Z,30.90
2023-05-16T00:59:50.939Z,31.67
2023-05-16T01:01:52.890Z,30.80
2023-05-16T01:03:55.401Z,32.70
2023-05-16T01:05:57.934Z,31.60
2023-05-16T01:07:59.651Z,33.00
2023-05-16T01:10:03.918Z,32.47
2023-05-16T01:12:14.535Z,32.83
2023-05-16T01:14:35.297Z,26.50
2023-05-16T01:16:42.018Z,30.67
2023-05-16T01:18:52.082Z,33.17
2023-05-16T01:20:58.975Z,20.57
2023-05-16T01:23:12.919Z,18.30
2023-05-16T01:25:31.437Z,32.00
2023-05-16T01:27:38.079Z,33.30
2023-05-16T01:29:39.675Z,34.53
2023-05-16T01:31:41.344Z,33.20
2023-05-16T01:33:43.401Z,34.97
2023-05-16T01:35:53.668Z,36.33
2023-05-16T01:38:04.664Z,34.17
2023-05-16T01:40:12.851Z,36.47
2023-05-16T01:42:15.473Z,33.90
2023-05-16T01:44:25.112Z,34.97
2023-05-16T01:46:30.232Z,34.33
2023-05-16T01:48:39.341Z,34.23
2023-05-16T01:50:49.553Z,33.00
2023-05-16T01:52:56.750Z,35.80
2023-05-16T01:55:00.122Z,33.10
2023-05-16T01:57:04.426Z,35.17
2023-05-16T01:59:07.860Z,33.27
2023-05-16T02:01:13.392Z,35.17
2023-05-16T02:03:15.242Z,34.93
2023-05-16T02:05:17.088Z,34.20
2023-05-16T02:07:19.085Z,34.70
2023-05-16T02:09:20.837Z,35.30
2023-05-16T02:11:22.435Z,33.93
2023-05-16T02:13:24.052Z,36.33
2023-05-16T02:15:25.797Z,32.50
2023-05-16T02:17:29.143Z,33.47
2023-05-16T02:19:30.848Z,34.87
2023-05-16T02:21:32.598Z,34.00
2023-05-16T02:23:34.235Z,34.30
2023-05-16T02:25:35.833Z,33.67
2023-05-16T02:27:37.409Z,31.80
2023-05-16T02:29:39.230Z,34.23
2023-05-16T02:31:40.811Z,32.30
2023-05-16T02:33:43.759Z,33.53
2023-05-16T02:35:45.382Z,33.47
2023-05-16T02:37:46.938Z,32.57
2023-05-16T02:39:48.546Z,31.10
2023-05-16T02:41:50.105Z,29.67
2023-05-16T02:43:51.715Z,29.13
2023-05-16T02:45:53.339Z,27.97
2023-05-16T02:47:55.012Z,27.30
2023-05-16T02:49:58.096Z,25.60
2023-05-16T02:51:59.638Z,24.70
2023-05-16T02:54:01.209Z,25.20
2023-05-16T02:56:02.793Z,24.30
2023-05-16T02:58:04.340Z,22.40
2023-05-16T03:00:07.489Z,23.40
2023-05-16T03:02:09.191Z,22.80
2023-05-16T03:04:11.383Z,22.00
2023-05-16T03:06:14.559Z,23.20
2023-05-16T03:08:16.455Z,23.47
2023-05-16T03:10:18.320Z,22.57
2023-05-16T03:12:19.886Z,22.40
2023-05-16T03:14:21.485Z,21.70
2023-05-16T03:16:23.161Z,21.57
2023-05-16T03:18:24.966Z,18.93
2023-05-16T03:20:26.512Z,19.90
2023-05-16T03:22:29.407Z,21.13
2023-05-16T03:24:31.111Z,21.90
2023-05-16T03:26:32.736Z,20.93
2023-05-16T03:28:34.341Z,22.80
2023-05-16T03:30:37.533Z,20.50
2023-05-16T03:32:39.867Z,21.27
2023-05-16T03:34:41.432Z,18.43
2023-05-16T03:36:43.144Z,20.70
2023-05-16T03:38:46.139Z,21.43
2023-05-16T03:40:47.730Z,22.40
2023-05-16T03:42:49.383Z,21.23
2023-05-16T03:44:50.909Z,22.10
2023-05-16T03:46:52.897Z,22.03
2023-05-16T03:48:54.527Z,20.70
2023-05-16T03:50:56.180Z,22.90
2023-05-16T03:52:57.790Z,19.80
2023-05-16T03:55:00.826Z,20.80
2023-05-16T03:57:02.396Z,20.23
2023-05-16T03:59:03.955Z,19.07
2023-05-16T04:01:05.553Z,20.50
2023-05-16T04:03:07.145Z,19.50
2023-05-16T04:05:12.092Z,16.33
2023-05-16T04:07:13.710Z,19.73
2023-05-16T04:09:15.363Z,16.83
2023-05-16T04:11:18.566Z,18.83
2023-05-16T04:13:20.230Z,13.17
2023-05-16T04:15:21.839Z,17.00
2023-05-16T04:17:23.720Z,16.10
2023-05-16T04:19:25.382Z,16.40
2023-05-16T04:21:26.985Z,17.43
2023-05-16T04:23:28.538Z,17.77
2023-05-16T04:25:30.520Z,19.40
2023-05-16T04:27:34.014Z,18.60
2023-05-16T04:29:35.696Z,18.33
2023-05-16T04:31:37.587Z,18.10
2023-05-16T04:33:39.268Z,19.47
2023-05-16T04:35:40.877Z,17.37
2023-05-16T04:37:42.604Z,18.03
2023-05-16T04:39:44.203Z,18.40
2023-05-16T04:41:47.417Z,17.90
2023-05-16T04:43:50.620Z,17.87
2023-05-16T04:45:52.291Z,18.27
2023-05-16T04:47:53.905Z,18.73
2023-05-16T04:49:55.545Z,17.47
2023-05-16T04:51:57.365Z,18.70
2023-05-16T04:54:00.875Z,18.27
2023-05-16T04:56:02.452Z,18.30
2023-05-16T04:58:04.256Z,19.73
2023-05-16T05:00:08.200Z,17.83
2023-05-16T05:02:09.943Z,17.70
2023-05-16T05:04:11.645Z,18.97
2023-05-16T05:06:13.316Z,18.03
2023-05-16T05:08:15.292Z,19.13
2023-05-16T05:10:17.033Z,18.77
2023-05-16T05:12:18.617Z,17.40
2023-05-16T05:14:20.313Z,18.03
2023-05-16T05:16:23.256Z,17.93
2023-05-16T05:18:24.855Z,19.30
2023-05-16T05:20:27.451Z,17.63
2023-05-16T05:22:29.095Z,16.40
2023-05-16T05:24:30.779Z,18.40
2023-05-16T05:26:32.455Z,18.67
2023-05-16T05:28:33.993Z,18.70
2023-05-16T05:30:35.546Z,16.93
2023-05-16T05:32:38.629Z,16.03
2023-05-16T05:34:40.192Z,15.40
2023-05-16T05:36:41.762Z,12.60
2023-05-16T05:38:43.414Z,18.67
2023-05-16T05:40:45.185Z,16.80
2023-05-16T05:42:47.350Z,16.53
2023-05-16T05:44:49.220Z,10.50
2023-05-16T05:46:50.943Z,9.27
2023-05-16T05:48:53.999Z,7.60
2023-05-16T05:50:56.027Z,9.60
2023-05-16T05:52:57.597Z,13.63
2023-05-16T05:54:59.531Z,9.83
2023-05-16T05:57:01.518Z,9.20
2023-05-16T05:59:03.346Z,10.23
2023-05-16T06:01:04.985Z,10.53
2023-05-16T06:03:06.685Z,8.43
2023-05-16T06:05:10.247Z,8.77
2023-05-16T06:07:11.910Z,9.53
2023-05-16T06:09:14.038Z,8.10
2023-05-16T06:11:15.644Z,8.43
2023-05-16T06:13:17.234Z,9.17
2023-05-16T06:15:19.074Z,8.00
2023-05-16T06:17:20.656Z,8.83
2023-05-16T06:19:22.904Z,8.13
2023-05-16T06:21:26.174Z,8.10
2023-05-16T06:23:27.820Z,6.63
2023-05-16T06:25:29.565Z,6.80
2023-05-16T06:27:31.447Z,6.50
2023-05-16T06:29:33.037Z,6.43
2023-05-16T06:31:34.775Z,6.60
2023-05-16T06:33:36.455Z,6.33
2023-05-16T06:35:39.013Z,6.00
2023-05-16T06:37:43.165Z,5.47
2023-05-16T06:39:45.031Z,6.00
2023-05-16T06:41:46.627Z,6.23
2023-05-16T06:43:48.285Z,5.27
2023-05-16T06:45:49.901Z,5.20
2023-05-16T06:47:51.523Z,5.23
2023-05-16T06:49:53.277Z,4.57
2023-05-16T06:51:54.874Z,4.47
2023-05-16T06:53:57.950Z,4.30
2023-05-16T06:55:59.569Z,4.00
2023-05-16T06:58:01.206Z,3.93
2023-05-16T07:00:03.032Z,3.97
2023-05-16T07:02:05.308Z,3.57
2023-05-16T07:04:07.308Z,3.80
2023-05-16T07:06:08.995Z,4.50
2023-05-16T07:08:11.019Z,4.33
2023-05-16T07:10:14.142Z,3.47
2023-05-16T07:12:15.888Z,3.50
2023-05-16T07:14:17.481Z,3.53
2023-05-16T07:16:19.173Z,3.77
2023-05-16T07:18:20.767Z,4.20
2023-05-16T07:20:22.637Z,4.17
2023-05-16T07:22:24.328Z,4.37
2023-05-16T07:24:26.028Z,3.67
2023-05-16T07:26:29.125Z,3.77
2023-05-16T07:28:30.784Z,3.70
2023-05-16T07:30:32.483Z,3.00
2023-05-16T07:32:34.228Z,2.60
2023-05-16T07:34:35.919Z,2.80
2023-05-16T07:36:37.529Z,3.47
2023-05-16T07:38:39.175Z,2.90
2023-05-16T07:40:40.858Z,2.40
2023-05-16T07:42:43.901Z,2.93
2023-05-16T07:44:45.777Z,2.90
2023-05-16T07:46:47.444Z,2.50
2023-05-16T07:48:49.141Z,2.73
2023-05-16T07:50:50.979Z,2.30
2023-05-16T07:52:52.742Z,2.20
2023-05-16T07:54:54.328Z,2.20
2023-05-16T07:56:55.948Z,2.47
2023-05-16T07:58:59.597Z,2.60
2023-05-16T08:01:01.304Z,2.47
2023-05-16T08:03:03.475Z,2.67
2023-05-16T08:05:06.520Z,2.20
2023-05-16T08:07:08.376Z,2.20
2023-05-16T08:09:10.041Z,2.20
2023-05-16T08:11:11.973Z,1.80
2023-05-16T08:13:13.598Z,1.80
2023-05-16T08:15:16.973Z,1.30
2023-05-16T08:17:18.982Z,1.43
2023-05-16T08:19:20.749Z,2.37
2023-05-16T08:21:22.536Z,3.00
2023-05-16T08:23:24.198Z,2.47
2023-05-16T08:25:26.404Z,2.67
2023-05-16T08:27:28.695Z,2.03
2023-05-16T08:29:30.419Z,1.80
2023-05-16T08:31:34.026Z,1.70
2023-05-16T08:33:35.760Z,2.13
2023-05-16T08:35:37.534Z,2.50
2023-05-16T08:37:39.216Z,2.30
2023-05-16T08:39:40.930Z,1.67
2023-05-16T08:41:42.913Z,2.00
2023-05-16T08:43:44.716Z,2.17
2023-05-16T08:45:46.522Z,2.20
2023-05-16T08:47:50.612Z,2.10
2023-05-16T08:49:55.917Z,2.77
2023-05-16T08:51:59.805Z,2.10
2023-05-16T08:54:06.245Z,2.40
2023-05-16T08:56:16.449Z,2.70
2023-05-16T08:58:18.670Z,2.40
2023-05-16T09:00:21.883Z,2.03
2023-05-16T09:02:23.886Z,2.00
2023-05-16T09:04:27.008Z,2.33
2023-05-16T09:06:28.872Z,2.30
2023-05-16T09:08:30.494Z,2.83
2023-05-16T09:10:32.279Z,2.27
2023-05-16T09:12:34.215Z,2.10
2023-05-16T09:14:37.161Z,2.40
2023-05-16T09:16:38.965Z,2.40
2023-05-16T09:18:42.813Z,2.00
2023-05-16T09:20:48.368Z,1.87
2023-05-16T09:22:52.813Z,2.30
2023-05-16T09:24:54.739Z,2.00
2023-05-16T09:26:56.842Z,1.17
2023-05-16T09:28:58.609Z,1.50
2023-05-16T09:31:03.045Z,1.60
2023-05-16T09:33:07.254Z,1.10
2023-05-16T09:35:11.398Z,1.67
2023-05-16T09:37:14.997Z,1.03
2023-05-16T09:39:16.567Z,1.27
2023-05-16T09:41:18.498Z,1.03
2023-05-16T09:43:23.238Z,0.80
2023-05-16T09:45:24.997Z,1.10
2023-05-16T09:47:28.161Z,0.90
2023-05-16T09:49:29.834Z,0.90
2023-05-16T09:51:31.599Z,0.90
2023-05-16T09:53:34.610Z,1.87
2023-05-16T09:55:36.238Z,0.90
2023-05-16T09:57:38.510Z,1.40
2023-05-16T09:59:40.459Z,0.80
2023-05-16T10:01:43.542Z,0.97
2023-05-16T10:03:45.337Z,0.97
2023-05-16T10:05:47.297Z,0.87
2023-05-16T10:07:51.156Z,0.90
2023-05-16T10:09:55.515Z,1.13
2023-05-16T10:11:58.102Z,1.03
2023-05-16T10:14:00.066Z,1.13
2023-05-16T10:16:07.325Z,1.10
2023-05-16T10:18:11.051Z,1.20
2023-05-16T10:20:13.338Z,2.00
2023-05-16T10:22:16.561Z,1.13
2023-05-16T10:24:23.865Z,0.93
2023-05-16T10:26:27.637Z,1.10
2023-05-16T10:28:29.509Z,1.00
2023-05-16T10:30:33.257Z,1.17
2023-05-16T10:32:36.033Z,1.10
2023-05-16T10:34:39.503Z,1.30
2023-05-16T10:36:41.337Z,0.97
2023-05-16T10:38:43.884Z,1.43
2023-05-16T10:40:48.038Z,1.50
2023-05-16T10:42:56.523Z,2.30
2023-05-16T10:45:09.396Z,3.60
2023-05-16T10:47:11.047Z,6.10
2023-05-16T10:49:23.529Z,6.83
2023-05-16T10:51:35.334Z,8.50
2023-05-16T10:53:36.952Z,7.47
2023-05-16T10:55:39.059Z,5.83
2023-05-16T10:57:44.866Z,8.50
2023-05-16T10:59:48.990Z,7.93
2023-05-16T11:01:53.114Z,4.23
2023-05-16T11:04:07.222Z,9.83
2023-05-16T11:06:09.701Z,9.10
2023-05-16T11:08:11.583Z,7.63
2023-05-16T11:10:16.504Z,2.00
2023-05-16T11:12:20.758Z,2.40
2023-05-16T11:14:23.049Z,2.23
2023-05-16T11:16:29.931Z,3.27
2023-05-16T11:18:33.237Z,3.00
2023-05-16T11:20:36.325Z,2.70
2023-05-16T11:22:39.538Z,3.20
2023-05-16T11:24:50.484Z,3.30
2023-05-16T11:26:53.709Z,3.00
2023-05-16T11:28:56.680Z,2.60
2023-05-16T11:30:59.191Z,4.00
2023-05-16T11:33:02.422Z,2.23
2023-05-16T11:35:05.256Z,2.50
2023-05-16T11:37:07.119Z,2.80
2023-05-16T11:39:08.771Z,1.60
2023-05-16T11:41:11.290Z,3.13
2023-05-16T11:43:23.418Z,4.37
2023-05-16T11:45:25.175Z,2.70
2023-05-16T11:47:27.329Z,3.40
2023-05-16T11:49:30.643Z,3.40
2023-05-16T11:51:32.436Z,4.17
2023-05-16T11:53:34.655Z,2.93
2023-05-16T11:57:41.610Z,3.90
2023-05-16T11:59:43.286Z,3.40
2023-05-16T12:01:45.101Z,2.63
2023-05-16T12:03:55.310Z,2.53
2023-05-16T12:05:58.751Z,3.17
2023-05-16T12:08:00.387Z,2.90
2023-05-16T12:10:05.578Z,2.67
2023-05-16T12:12:07.817Z,2.20
2023-05-16T12:14:12.536Z,2.67
2023-05-16T12:16:14.466Z,2.30
2023-05-16T12:18:17.276Z,2.13
2023-05-16T12:20:19.108Z,2.00
2023-05-16T12:22:22.166Z,2.40
2023-05-16T12:24:30.286Z,2.90
2023-05-16T12:26:33.161Z,2.27
2023-05-16T12:28:35.069Z,2.60
2023-05-16T12:30:41.311Z,2.63
2023-05-16T12:32:43.013Z,2.80
2023-05-16T12:34:49.628Z,2.57
2023-05-16T12:36:52.800Z,2.40
2023-05-16T12:38:56.122Z,2.53
2023-05-16T12:40:58.672Z,3.03
2023-05-16T12:43:00.355Z,2.43
2023-05-16T12:45:01.998Z,2.73
2023-05-16T12:47:04.038Z,3.27
2023-05-16T12:49:05.659Z,2.33
2023-05-16T12:51:15.532Z,2.70
2023-05-16T12:53:18.913Z,2.83
2023-05-16T12:55:25.464Z,2.80
2023-05-16T12:57:27.052Z,2.73
2023-05-16T12:59:28.667Z,3.03
2023-05-16T13:01:30.419Z,3.07
2023-05-16T13:03:35.272Z,3.03
2023-05-16T13:05:38.146Z,2.93
2023-05-16T13:07:39.785Z,2.80
2023-05-16T13:09:41.407Z,3.47
2023-05-16T13:11:44.488Z,2.97
2023-05-16T13:13:46.165Z,2.60
2023-05-16T13:15:48.010Z,2.90
2023-05-16T13:17:49.674Z,2.90
2023-05-16T13:19:51.384Z,2.70
2023-05-16T13:21:53.008Z,2.60
2023-05-16T13:23:54.669Z,3.00
2023-05-16T13:25:56.482Z,2.50
2023-05-16T13:27:59.478Z,2.70
2023-05-16T13:30:01.662Z,2.77
2023-05-16T13:32:03.989Z,2.47
2023-05-16T13:34:05.870Z,2.67
2023-05-16T13:36:09.540Z,3.07
2023-05-16T13:38:11.468Z,2.80
2023-05-16T13:40:13.308Z,2.70
2023-05-16T13:42:14.952Z,2.43
2023-05-16T13:44:18.213Z,2.40
2023-05-16T13:46:20.014Z,2.77
2023-05-16T13:48:21.676Z,2.30
2023-05-16T13:50:23.354Z,2.43
2023-05-16T13:52:25.002Z,2.50
2023-05-16T13:54:26.682Z,1.90
2023-05-16T13:56:28.324Z,2.23
2023-05-16T13:58:29.885Z,2.13
2023-05-16T14:00:44.506Z,3.80
2023-05-16T14:02:47.219Z,3.57
2023-05-16T14:04:49.912Z,3.07
2023-05-16T14:06:52.059Z,2.70
2023-05-16T14:08:53.862Z,2.80
2023-05-16T14:10:55.401Z,2.40
2023-05-16T14:12:57.414Z,2.47
2023-05-16T14:14:59.062Z,2.03
2023-05-16T14:17:04.162Z,3.07
2023-05-16T14:19:05.882Z,2.67
2023-05-16T14:21:07.838Z,2.10
2023-05-16T14:23:09.446Z,2.30
2023-05-16T14:25:11.134Z,2.50
2023-05-16T14:27:12.774Z,2.10
2023-05-16T14:29:14.426Z,2.13
2023-05-16T14:31:16.148Z,1.73
2023-05-16T14:33:19.235Z,2.23
2023-05-16T14:35:20.910Z,2.60
2023-05-16T14:37:22.507Z,3.30
2023-05-16T14:39:24.183Z,2.30
2023-05-16T14:41:25.962Z,2.13
2023-05-16T14:43:27.803Z,2.53
2023-05-16T14:45:30.117Z,2.30
2023-05-16T14:47:31.946Z,2.33
2023-05-16T14:49:34.996Z,2.60
2023-05-16T14:51:36.831Z,1.80
2023-05-16T14:53:38.420Z,1.93
2023-05-16T14:55:40.045Z,2.50
2023-05-16T14:57:44.677Z,2.20
2023-05-16T14:59:47.060Z,2.30
2023-05-16T15:01:48.837Z,1.97
2023-05-16T15:03:55.249Z,1.63
2023-05-16T15:05:59.976Z,2.50
2023-05-16T15:08:01.692Z,2.20
2023-05-16T15:10:03.653Z,2.13
2023-05-16T15:12:06.858Z,1.90
2023-05-16T15:14:08.516Z,2.03
2023-05-16T15:16:10.394Z,1.90
2023-05-16T15:18:12.437Z,1.80
2023-05-16T15:20:14.659Z,1.83
2023-05-16T15:22:17.679Z,1.73
2023-05-16T15:24:19.370Z,1.57
2023-05-16T15:26:21.301Z,1.70
2023-05-16T15:28:22.945Z,1.93
2023-05-16T15:30:24.820Z,1.90
2023-05-16T15:32:26.798Z,1.70
2023-05-16T15:34:28.457Z,1.50
2023-05-16T15:36:30.052Z,1.80
2023-05-16T15:38:32.834Z,1.93
2023-05-16T15:40:34.461Z,1.53
2023-05-16T15:42:36.516Z,2.27
2023-05-16T15:44:38.948Z,2.00
2023-05-16T15:46:40.818Z,2.03
2023-05-16T15:48:42.624Z,1.80
2023-05-16T15:50:44.869Z,2.70
2023-05-16T15:52:46.502Z,2.53
2023-05-16T15:54:49.462Z,3.07
2023-05-16T15:56:51.124Z,2.10
2023-05-16T15:58:55.182Z,1.67
2023-05-16T16:00:56.924Z,2.17
2023-05-16T16:02:58.686Z,1.70
2023-05-16T16:05:00.347Z,1.70
2023-05-16T16:07:02.110Z,2.13
2023-05-16T16:09:05.236Z,2.10
2023-05-16T16:11:08.325Z,1.70
2023-05-16T16:13:10.030Z,1.50
2023-05-16T16:15:11.936Z,1.50
2023-05-16T16:17:13.556Z,1.70
2023-05-16T16:19:15.291Z,1.27
2023-05-16T16:21:17.190Z,1.70
2023-05-16T16:23:19.044Z,1.70
2023-05-16T16:25:20.682Z,1.37
2023-05-16T16:27:23.760Z,1.50
2023-05-16T16:29:25.403Z,1.40
2023-05-16T16:31:27.136Z,2.00
2023-05-16T16:33:28.915Z,1.80
2023-05-16T16:35:30.707Z,1.53
2023-05-16T16:37:35.092Z,2.10
2023-05-16T16:39:36.929Z,1.97
2023-05-16T16:41:38.602Z,2.20
2023-05-16T16:43:41.667Z,2.07
2023-05-16T16:45:43.427Z,2.27
2023-05-16T16:47:45.136Z,1.63
2023-05-16T16:49:46.928Z,2.20
2023-05-16T16:51:48.863Z,1.63
2023-05-16T16:53:50.506Z,2.30
2023-05-16T16:55:52.150Z,1.60
2023-05-16T16:57:53.841Z,1.50
2023-05-16T16:59:57.127Z,1.90
2023-05-16T17:01:58.909Z,1.40
2023-05-16T17:04:00.660Z,1.77
2023-05-16T17:06:02.384Z,1.50
2023-05-16T17:08:04.563Z,1.57
2023-05-16T17:10:07.048Z,1.40
2023-05-16T17:12:09.199Z,1.20
2023-05-16T17:14:10.989Z,1.57
2023-05-16T17:16:14.140Z,1.60
2023-05-16T17:18:15.908Z,2.20
2023-05-16T17:20:17.668Z,1.73
2023-05-16T17:22:19.549Z,1.70
2023-05-16T17:24:21.740Z,1.30
2023-05-16T17:26:23.567Z,1.40
2023-05-16T17:28:25.371Z,1.20
2023-05-16T17:30:27.122Z,1.40
2023-05-16T17:32:30.214Z,1.60
2023-05-16T17:34:32.013Z,1.60
2023-05-16T17:36:33.905Z,1.60
2023-05-16T17:38:36.280Z,1.23
2023-05-16T17:40:37.998Z,1.73
2023-05-16T17:42:39.704Z,1.30
2023-05-16T17:44:41.420Z,1.40
2023-05-16T17:46:43.203Z,1.53
2023-05-16T17:48:46.925Z,1.93
2023-05-16T17:50:48.998Z,2.00
2023-05-16T17:52:50.624Z,2.07
2023-05-16T17:54:52.311Z,2.13
2023-05-16T17:56:54.148Z,1.50
2023-05-16T17:58:55.895Z,1.90
2023-05-16T18:00:57.623Z,1.70
2023-05-16T18:02:59.506Z,1.30
2023-05-16T18:05:02.548Z,1.83
2023-05-16T18:07:06.663Z,2.07
2023-05-16T18:09:08.389Z,1.90
2023-05-16T18:11:10.500Z,1.53
2023-05-16T18:13:12.538Z,1.80
2023-05-16T18:15:16.291Z,1.27
2023-05-16T18:17:18.555Z,1.83
2023-05-16T18:19:20.682Z,1.43
2023-05-16T18:21:23.861Z,1.63
2023-05-16T18:23:25.827Z,1.53
2023-05-16T18:25:28.039Z,1.60
2023-05-16T18:27:29.861Z,1.63
2023-05-16T18:29:32.217Z,1.70
2023-05-16T18:31:33.994Z,1.40
2023-05-16T18:33:36.005Z,1.50
2023-05-16T18:35:37.856Z,1.67
2023-05-16T18:37:43.486Z,1.50
2023-05-16T18:39:46.114Z,1.23
2023-05-16T18:41:48.015Z,2.27
2023-05-16T18:43:50.170Z,2.63
2023-05-16T18:45:52.033Z,2.80
2023-05-16T18:47:53.858Z,2.13
2023-05-16T18:49:55.767Z,1.97
2023-05-16T18:51:57.484Z,1.87
2023-05-16T18:54:00.903Z,1.70
2023-05-16T18:56:03.112Z,1.30
2023-05-16T18:58:05.313Z,2.00
2023-05-16T19:00:08.468Z,2.23
2023-05-16T19:02:10.958Z,1.50
2023-05-16T19:04:13.258Z,1.43
2023-05-16T19:06:15.396Z,1.70
2023-05-16T19:08:17.302Z,1.50
2023-05-16T19:10:20.616Z,1.50
2023-05-16T19:12:22.891Z,1.87
2023-05-16T19:14:24.885Z,1.47
2023-05-16T19:16:28.828Z,2.30
2023-05-16T19:18:30.589Z,1.53
2023-05-16T19:20:34.714Z,1.43
2023-05-16T19:22:37.776Z,1.47
2023-05-16T19:24:39.667Z,1.77
2023-05-16T19:26:43.575Z,1.70
2023-05-16T19:28:45.728Z,1.60
2023-05-16T19:30:47.751Z,2.00
2023-05-16T19:32:49.815Z,2.17
2023-05-16T19:34:51.681Z,1.80
2023-05-16T19:36:53.594Z,1.47
2023-05-16T19:38:55.814Z,2.03
2023-05-16T19:40:58.208Z,1.60
2023-05-16T19:43:01.585Z,1.70
2023-05-16T19:45:04.340Z,1.40
2023-05-16T19:47:06.625Z,1.60
2023-05-16T19:49:08.458Z,1.67
2023-05-16T19:51:10.789Z,1.57
2023-05-16T19:53:12.472Z,1.90
2023-05-16T19:55:14.633Z,1.87
2023-05-16T19:57:16.653Z,1.30
2023-05-16T19:59:19.725Z,1.60
2023-05-16T20:01:21.456Z,1.63
2023-05-16T20:03:23.443Z,1.50
2023-05-16T20:05:25.522Z,1.47
2023-05-16T20:07:27.705Z,1.80
2023-05-16T20:09:29.836Z,1.67
2023-05-16T20:11:31.794Z,1.53
2023-05-16T20:13:33.503Z,2.10
2023-05-16T20:15:36.926Z,1.47
2023-05-16T20:17:39.383Z,1.47
2023-05-16T20:19:41.110Z,1.47
2023-05-16T20:21:43.192Z,1.27
2023-05-16T20:23:45.437Z,2.10
2023-05-16T20:25:47.224Z,2.07
2023-05-16T20:27:52.613Z,1.47
2023-05-16T20:29:54.351Z,1.60
2023-05-16T20:31:59.000Z,1.30
2023-05-16T20:34:00.895Z,1.53
2023-05-16T20:36:02.641Z,1.60
2023-05-16T20:38:04.339Z,1.70
2023-05-16T20:40:07.854Z,1.40
2023-05-16T20:42:09.790Z,1.60
2023-05-16T20:44:11.374Z,1.70
2023-05-16T20:46:13.304Z,1.67
2023-05-16T20:48:16.785Z,1.83
2023-05-16T20:50:18.653Z,1.33
2023-05-16T20:52:21.971Z,1.50
2023-05-16T20:54:23.763Z,1.37
2023-05-16T20:56:25.605Z,1.30
2023-05-16T20:58:27.216Z,1.53
2023-05-16T21:00:28.903Z,1.87
2023-05-16T21:02:30.558Z,1.70
2023-05-16T21:04:33.782Z,2.13
2023-05-16T21:06:35.371Z,1.40
2023-05-16T21:08:36.994Z,1.90
2023-05-16T21:10:38.720Z,1.93
2023-05-16T21:12:40.386Z,2.00
2023-05-16T21:14:41.992Z,1.50
2023-05-16T21:16:43.827Z,1.90
2023-05-16T21:18:45.736Z,1.70
2023-05-16T21:20:49.095Z,1.77
2023-05-16T21:22:51.018Z,1.70
2023-05-16T21:24:52.959Z,1.33
2023-05-16T21:26:54.581Z,1.70
2023-05-16T21:28:56.431Z,1.63
2023-05-16T21:30:58.083Z,1.70
2023-05-16T21:32:59.786Z,1.90
2023-05-16T21:35:01.582Z,1.90
2023-05-16T21:37:04.903Z,1.77
2023-05-16T21:39:06.595Z,1.57
2023-05-16T21:41:08.981Z,1.70
2023-05-16T21:43:10.613Z,1.70
2023-05-16T21:45:12.598Z,1.80
2023-05-16T21:47:14.286Z,1.53
2023-05-16T21:49:16.088Z,1.40
2023-05-16T21:51:18.821Z,1.80
2023-05-16T21:53:21.807Z,1.57
2023-05-16T21:55:23.812Z,1.63
2023-05-16T21:57:25.399Z,1.60
2023-05-16T21:59:27.080Z,1.37
2023-05-16T22:01:28.748Z,1.50
2023-05-16T22:03:30.392Z,1.60
2023-05-16T22:05:32.094Z,1.70
2023-05-16T22:07:33.864Z,1.60
2023-05-16T22:09:37.077Z,1.60
2023-05-16T22:11:38.715Z,1.60
2023-05-16T22:13:40.366Z,1.93
2023-05-16T22:15:44.517Z,1.50
2023-05-16T22:17:48.789Z,1.50
2023-05-16T22:19:50.743Z,1.40
2023-05-16T22:21:52.405Z,2.00
2023-05-16T22:23:54.063Z,1.40
2023-05-16T22:25:57.078Z,2.10
2023-05-16T22:27:58.718Z,1.90
2023-05-16T22:30:00.386Z,1.63
2023-05-16T22:32:02.015Z,1.93
2023-05-16T22:34:03.836Z,1.47
2023-05-16T22:36:06.160Z,1.33
2023-05-16T22:38:07.792Z,1.63
2023-05-16T22:40:10.423Z,2.10
2023-05-16T22:42:13.443Z,1.50
2023-05-16T22:44:15.220Z,1.50
2023-05-16T22:46:16.863Z,1.70
2023-05-16T22:48:18.629Z,1.80
2023-05-16T22:50:20.291Z,1.50
2023-05-16T22:52:22.018Z,1.90
2023-05-16T22:54:23.743Z,2.10
2023-05-16T22:56:25.423Z,1.50
2023-05-16T22:58:28.349Z,1.83
2023-05-16T23:00:30.048Z,1.60
2023-05-16T23:02:31.854Z,1.70
2023-05-16T23:04:33.593Z,1.90
2023-05-16T23:06:35.317Z,1.80
2023-05-16T23:08:36.916Z,1.97
2023-05-16T23:10:38.660Z,2.00
2023-05-16T23:12:40.304Z,2.00
2023-05-16T23:14:43.328Z,2.07
2023-05-16T23:16:44.924Z,2.07
2023-05-16T23:18:46.783Z,2.10
2023-05-16T23:20:48.594Z,2.00
2023-05-16T23:22:50.316Z,1.97
2023-05-16T23:24:52.234Z,2.37
2023-05-16T23:26:53.823Z,2.17
2023-05-16T23:28:55.458Z,2.60
2023-05-16T23:30:58.447Z,2.30
2023-05-16T23:33:00.226Z,2.60
2023-05-16T23:35:01.931Z,2.03
2023-05-16T23:37:03.653Z,1.97
2023-05-16T23:39:05.232Z,2.07
2023-05-16T23:41:07.326Z,1.70
2023-05-16T23:43:09.250Z,2.13
2023-05-16T23:45:11.711Z,2.27
2023-05-16T23:47:14.769Z,2.20
2023-05-16T23:49:16.356Z,2.30
2023-05-16T23:51:18.010Z,1.90
2023-05-16T23:53:19.712Z,2.30
2023-05-16T23:55:21.634Z,1.70
2023-05-16T23:57:23.322Z,2.00
2023-05-16T23:59:25.034Z,1.83
